createdAt,value
2018-08-12T00:00:27.406Z,14.10
2018-08-12T00:01:01.897Z,14.10
2018-08-12T00:01:35.773Z,14.10
2018-08-12T00:02:10.019Z,14.10
2018-08-12T00:02:44.016Z,14.10
2018-08-12T00:03:17.919Z,14.10
2018-08-12T00:03:52.273Z,14.10
2018-08-12T00:04:26.553Z,14.00
2018-08-12T00:05:00.463Z,14.00
2018-08-12T00:05:34.358Z,14.00
2018-08-12T00:06:08.235Z,14.00
2018-08-12T00:06:42.145Z,14.00
2018-08-12T00:07:16.057Z,14.00
2018-08-12T00:07:50.353Z,14.00
2018-08-12T00:08:24.531Z,13.90
2018-08-12T00:08:58.439Z,14.00
2018-08-12T00:09:32.349Z,13.90
2018-08-12T00:10:07.999Z,13.90
2018-08-12T00:10:41.893Z,13.90
2018-08-12T00:11:16.431Z,13.90
2018-08-12T00:11:50.405Z,13.80
2018-08-12T00:12:24.279Z,13.80
2018-08-12T00:12:58.195Z,13.80
2018-08-12T00:13:32.040Z,13.80
2018-08-12T00:14:06.185Z,13.80
2018-08-12T00:14:40.051Z,13.80
2018-08-12T00:15:17.576Z,13.80
2018-08-12T00:15:51.924Z,13.80
2018-08-12T00:16:25.799Z,13.80
2018-08-12T00:17:00.061Z,13.80
2018-08-12T00:17:33.911Z,13.80
2018-08-12T00:18:07.805Z,13.80
2018-08-12T00:18:41.685Z,13.80
2018-08-12T00:19:16.149Z,13.80
2018-08-12T00:19:50.567Z,13.70
2018-08-12T00:20:25.025Z,13.80
2018-08-12T00:20:59.283Z,13.70
2018-08-12T00:21:33.680Z,13.70
2018-08-12T00:22:13.699Z,13.70
2018-08-12T00:22:49.725Z,13.70
2018-08-12T00:23:24.077Z,13.70
2018-08-12T00:23:59.162Z,13.70
2018-08-12T00:24:34.383Z,13.70
2018-08-12T00:25:10.983Z,13.70
2018-08-12T00:25:45.184Z,13.70
2018-08-12T00:26:20.921Z,13.70
2018-08-12T00:26:55.458Z,13.70
2018-08-12T00:28:16.044Z,13.70
2018-08-12T00:28:54.214Z,13.60
2018-08-12T00:29:28.503Z,13.60
2018-08-12T00:30:09.594Z,13.60
2018-08-12T00:30:43.487Z,13.60
2018-08-12T00:31:18.297Z,13.60
2018-08-12T00:31:52.193Z,13.60
2018-08-12T00:32:26.693Z,13.60
2018-08-12T00:33:00.565Z,13.60
2018-08-12T00:33:34.803Z,13.60
2018-08-12T00:34:10.145Z,13.60
2018-08-12T00:34:44.084Z,13.60
2018-08-12T00:35:19.058Z,13.50
2018-08-12T00:35:53.013Z,13.50
2018-08-12T00:36:26.953Z,13.50
2018-08-12T00:37:01.365Z,13.50
2018-08-12T00:37:35.601Z,13.50
2018-08-12T00:38:10.463Z,13.50
2018-08-12T00:38:44.379Z,13.50
2018-08-12T00:39:18.354Z,13.50
2018-08-12T00:39:52.918Z,13.50
2018-08-12T00:40:26.819Z,13.40
2018-08-12T00:41:01.041Z,13.40
2018-08-12T00:41:34.975Z,13.50
2018-08-12T00:42:09.183Z,13.40
2018-08-12T00:42:43.481Z,13.40
2018-08-12T00:43:17.393Z,13.40
2018-08-12T00:43:51.321Z,13.40
2018-08-12T00:44:25.231Z,13.40
2018-08-12T00:44:59.125Z,13.40
2018-08-12T00:45:33.707Z,13.40
2018-08-12T00:46:07.604Z,13.40
2018-08-12T00:46:41.480Z,13.40
2018-08-12T00:47:15.362Z,13.40
2018-08-12T00:47:50.414Z,13.40
2018-08-12T00:48:24.305Z,13.40
2018-08-12T00:48:58.513Z,13.40
2018-08-12T00:49:32.417Z,13.40
2018-08-12T00:50:07.407Z,13.40
2018-08-12T00:50:41.625Z,13.40
2018-08-12T00:51:15.808Z,13.40
2018-08-12T00:51:50.067Z,13.40
2018-08-12T00:52:23.932Z,13.50
2018-08-12T00:52:57.781Z,13.40
2018-08-12T00:53:32.065Z,13.40
2018-08-12T00:54:05.974Z,13.50
2018-08-12T00:54:40.201Z,13.50
2018-08-12T00:55:15.459Z,13.50
2018-08-12T00:55:49.352Z,13.50
2018-08-12T00:56:23.728Z,13.50
2018-08-12T00:56:57.665Z,13.50
2018-08-12T00:57:32.197Z,13.50
2018-08-12T00:58:06.440Z,13.50
2018-08-12T00:58:40.313Z,13.50
2018-08-12T00:59:14.531Z,13.50
2018-08-12T00:59:48.508Z,13.50
2018-08-12T01:00:23.218Z,13.50
2018-08-12T01:00:58.265Z,13.50
2018-08-12T01:01:32.470Z,13.50
2018-08-12T01:02:06.401Z,13.50
2018-08-12T01:02:40.510Z,13.50
2018-08-12T01:03:14.765Z,13.60
2018-08-12T01:03:48.676Z,13.50
2018-08-12T01:04:22.885Z,13.50
2018-08-12T01:04:56.808Z,13.50
2018-08-12T01:05:30.674Z,13.50
2018-08-12T01:06:04.622Z,13.50
2018-08-12T01:06:38.488Z,13.50
2018-08-12T01:07:12.789Z,13.50
2018-08-12T01:07:47.560Z,13.50
2018-08-12T01:08:21.426Z,13.40
2018-08-12T01:08:55.246Z,13.50
2018-08-12T01:09:29.137Z,13.40
2018-08-12T01:10:03.313Z,13.40
2018-08-12T01:10:37.240Z,13.40
2018-08-12T01:11:11.081Z,13.40
2018-08-12T01:11:45.027Z,13.40
2018-08-12T01:12:19.050Z,13.40
2018-08-12T01:12:52.896Z,13.40
2018-08-12T01:13:27.121Z,13.40
2018-08-12T01:14:01.325Z,13.30
2018-08-12T01:14:35.521Z,13.30
2018-08-12T01:15:24.973Z,13.30
2018-08-12T01:15:58.874Z,13.30
2018-08-12T01:16:33.141Z,13.30
2018-08-12T01:17:07.047Z,13.30
2018-08-12T01:17:41.053Z,13.30
2018-08-12T01:18:15.281Z,13.30
2018-08-12T01:18:49.151Z,13.30
2018-08-12T01:19:23.371Z,13.30
2018-08-12T01:19:57.573Z,13.30
2018-08-12T01:20:31.776Z,13.30
2018-08-12T01:21:06.839Z,13.20
2018-08-12T01:21:40.761Z,13.20
2018-08-12T01:22:14.636Z,13.20
2018-08-12T01:22:48.767Z,13.20
2018-08-12T01:23:22.637Z,13.20
2018-08-12T01:23:56.628Z,13.20
2018-08-12T01:24:30.525Z,13.20
2018-08-12T01:25:05.335Z,13.20
2018-08-12T01:25:39.541Z,13.20
2018-08-12T01:26:13.738Z,13.20
2018-08-12T01:26:47.992Z,13.20
2018-08-12T01:27:21.861Z,13.20
2018-08-12T01:27:56.171Z,13.10
2018-08-12T01:28:30.717Z,13.20
2018-08-12T01:29:04.957Z,13.10
2018-08-12T01:29:38.809Z,13.10
2018-08-12T01:30:15.529Z,13.10
2018-08-12T01:30:50.140Z,13.20
2018-08-12T01:31:24.077Z,13.10
2018-08-12T01:31:57.961Z,13.10
2018-08-12T01:32:32.345Z,13.10
2018-08-12T01:33:06.327Z,13.10
2018-08-12T01:33:40.169Z,13.10
2018-08-12T01:34:14.395Z,13.10
2018-08-12T01:34:48.247Z,13.10
2018-08-12T01:35:22.478Z,13.10
2018-08-12T01:35:56.736Z,13.10
2018-08-12T01:36:31.084Z,13.10
2018-08-12T01:37:04.943Z,13.10
2018-08-12T01:37:39.245Z,13.10
2018-08-12T01:38:13.117Z,13.10
2018-08-12T01:38:47.339Z,13.10
2018-08-12T01:39:21.161Z,13.10
2018-08-12T01:39:55.057Z,13.00
2018-08-12T01:40:29.565Z,13.10
2018-08-12T01:41:03.453Z,13.00
2018-08-12T01:41:37.439Z,13.00
2018-08-12T01:42:11.303Z,13.00
2018-08-12T01:42:45.935Z,13.00
2018-08-12T01:43:20.169Z,13.00
2018-08-12T01:43:54.029Z,13.00
2018-08-12T01:44:28.221Z,13.00
2018-08-12T01:45:02.260Z,13.00
2018-08-12T01:45:36.108Z,13.00
2018-08-12T01:46:09.999Z,13.00
2018-08-12T01:46:43.848Z,13.00
2018-08-12T01:47:18.045Z,13.00
2018-08-12T01:47:51.978Z,13.00
2018-08-12T01:48:25.881Z,13.00
2018-08-12T01:49:00.088Z,13.00
2018-08-12T01:49:33.983Z,13.00
2018-08-12T01:50:08.406Z,13.00
2018-08-12T01:50:42.641Z,13.00
2018-08-12T01:51:16.536Z,13.00
2018-08-12T01:51:50.429Z,13.00
2018-08-12T01:52:24.631Z,12.90
2018-08-12T01:52:58.490Z,12.90
2018-08-12T01:53:32.369Z,12.90
2018-08-12T01:54:06.657Z,12.90
2018-08-12T01:54:40.865Z,12.90
2018-08-12T01:55:15.202Z,12.90
2018-08-12T01:55:49.091Z,12.90
2018-08-12T01:57:01.391Z,12.90
2018-08-12T01:57:35.591Z,12.90
2018-08-12T01:58:09.703Z,12.90
2018-08-12T01:58:43.925Z,12.90
2018-08-12T01:59:18.113Z,12.90
2018-08-12T01:59:52.034Z,12.90
2018-08-12T02:00:26.245Z,12.90
2018-08-12T02:01:00.120Z,12.90
2018-08-12T02:01:34.025Z,12.90
2018-08-12T02:02:08.527Z,12.90
2018-08-12T02:02:42.415Z,12.90
2018-08-12T02:03:16.273Z,12.90
2018-08-12T02:03:50.477Z,12.90
2018-08-12T02:04:24.673Z,12.90
2018-08-12T02:04:58.525Z,12.90
2018-08-12T02:05:32.387Z,12.90
2018-08-12T02:06:06.591Z,12.90
2018-08-12T02:06:40.482Z,12.90
2018-08-12T02:07:14.743Z,12.90
2018-08-12T02:07:48.657Z,12.90
2018-08-12T02:08:22.655Z,12.90
2018-08-12T02:08:56.858Z,12.90
2018-08-12T02:09:31.063Z,13.00
2018-08-12T02:10:06.507Z,13.00
2018-08-12T02:10:40.361Z,13.00
2018-08-12T02:11:14.565Z,12.90
2018-08-12T02:11:48.427Z,13.00
2018-08-12T02:12:22.311Z,13.00
2018-08-12T02:12:56.156Z,13.00
2018-08-12T02:13:30.415Z,13.00
2018-08-12T02:14:04.655Z,13.00
2018-08-12T02:14:38.507Z,13.00
2018-08-12T02:15:12.765Z,13.00
2018-08-12T02:15:46.953Z,13.00
2018-08-12T02:16:21.523Z,13.00
2018-08-12T02:16:55.389Z,13.00
2018-08-12T02:17:29.289Z,13.10
2018-08-12T02:18:03.705Z,13.10
2018-08-12T02:18:37.877Z,13.10
2018-08-12T02:19:11.737Z,13.10
2018-08-12T02:19:45.969Z,13.10
2018-08-12T02:20:19.831Z,13.10
2018-08-12T02:20:53.714Z,13.10
2018-08-12T02:21:27.961Z,13.10
2018-08-12T02:22:01.873Z,13.10
2018-08-12T02:22:36.194Z,13.10
2018-08-12T02:23:10.385Z,13.10
2018-08-12T02:23:44.282Z,13.10
2018-08-12T02:24:18.095Z,13.10
2018-08-12T02:24:51.976Z,13.10
2018-08-12T02:25:25.903Z,13.10
2018-08-12T02:25:59.766Z,13.10
2018-08-12T02:26:34.317Z,13.10
2018-08-12T02:27:08.157Z,13.10
2018-08-12T02:27:42.356Z,13.10
2018-08-12T02:28:16.179Z,13.10
2018-08-12T02:28:50.439Z,13.10
2018-08-12T02:29:24.268Z,13.10
2018-08-12T02:29:58.114Z,13.10
2018-08-12T02:30:31.970Z,13.10
2018-08-12T02:31:06.290Z,13.10
2018-08-12T02:31:40.830Z,13.10
2018-08-12T02:32:14.744Z,13.10
2018-08-12T02:32:48.932Z,13.10
2018-08-12T02:33:23.460Z,13.10
2018-08-12T02:33:57.629Z,13.10
2018-08-12T02:34:31.813Z,13.10
2018-08-12T02:35:06.631Z,13.10
2018-08-12T02:35:40.483Z,13.10
2018-08-12T02:36:14.333Z,13.10
2018-08-12T02:36:48.494Z,13.00
2018-08-12T02:37:22.327Z,13.10
2018-08-12T02:37:56.569Z,13.00
2018-08-12T02:38:30.402Z,13.00
2018-08-12T02:39:07.436Z,13.00
2018-08-12T02:39:41.604Z,13.00
2018-08-12T02:40:15.834Z,13.00
2018-08-12T02:40:50.044Z,13.00
2018-08-12T02:41:24.560Z,13.00
2018-08-12T02:41:58.402Z,13.00
2018-08-12T02:42:32.590Z,13.00
2018-08-12T02:43:07.460Z,13.00
2018-08-12T02:43:41.657Z,13.00
2018-08-12T02:44:15.598Z,13.00
2018-08-12T02:44:50.144Z,13.00
2018-08-12T02:45:23.984Z,13.00
2018-08-12T02:45:58.528Z,13.00
2018-08-12T02:46:32.423Z,13.00
2018-08-12T02:47:06.646Z,13.00
2018-08-12T02:47:40.818Z,13.00
2018-08-12T02:48:14.668Z,13.00
2018-08-12T02:48:48.871Z,13.00
2018-08-12T02:49:23.154Z,13.00
2018-08-12T02:49:56.998Z,13.00
2018-08-12T02:50:31.178Z,13.00
2018-08-12T02:51:05.220Z,13.00
2018-08-12T02:51:39.066Z,13.00
2018-08-12T02:52:13.256Z,13.00
2018-08-12T02:52:47.120Z,13.00
2018-08-12T02:53:21.678Z,13.00
2018-08-12T02:53:55.836Z,13.00
2018-08-12T02:54:29.694Z,13.00
2018-08-12T02:55:03.567Z,13.00
2018-08-12T02:55:37.398Z,13.00
2018-08-12T02:56:11.238Z,12.90
2018-08-12T02:56:45.062Z,12.90
2018-08-12T02:57:19.625Z,12.90
2018-08-12T02:57:53.612Z,12.90
2018-08-12T02:58:27.640Z,12.90
2018-08-12T02:59:01.528Z,12.90
2018-08-12T02:59:36.070Z,12.90
2018-08-12T03:00:11.700Z,12.90
2018-08-12T03:00:45.914Z,12.90
2018-08-12T03:01:19.774Z,12.90
2018-08-12T03:01:53.653Z,12.90
2018-08-12T03:02:27.484Z,12.90
2018-08-12T03:03:01.662Z,12.90
2018-08-12T03:03:35.515Z,12.90
2018-08-12T03:04:09.406Z,12.90
2018-08-12T03:04:43.993Z,12.90
2018-08-12T03:05:18.186Z,12.90
2018-08-12T03:05:52.428Z,12.90
2018-08-12T03:06:26.288Z,12.90
2018-08-12T03:07:00.161Z,12.80
2018-08-12T03:07:34.378Z,12.90
2018-08-12T03:08:08.317Z,12.90
2018-08-12T03:08:42.865Z,12.90
2018-08-12T03:09:16.792Z,12.90
2018-08-12T03:09:51.028Z,12.90
2018-08-12T03:10:25.558Z,12.90
2018-08-12T03:10:59.428Z,12.90
2018-08-12T03:11:33.249Z,12.90
2018-08-12T03:12:07.128Z,12.90
2018-08-12T03:12:40.964Z,12.90
2018-08-12T03:13:15.456Z,12.90
2018-08-12T03:13:49.342Z,12.90
2018-08-12T03:14:23.216Z,12.90
2018-08-12T03:14:57.421Z,12.90
2018-08-12T03:15:31.294Z,12.90
2018-08-12T03:16:05.488Z,12.90
2018-08-12T03:16:40.047Z,12.90
2018-08-12T03:17:14.555Z,12.90
2018-08-12T03:17:48.758Z,12.90
2018-08-12T03:18:22.645Z,12.90
2018-08-12T03:18:56.827Z,12.90
2018-08-12T03:19:31.014Z,12.90
2018-08-12T03:20:06.384Z,12.90
2018-08-12T03:20:40.254Z,12.90
2018-08-12T03:21:14.106Z,12.90
2018-08-12T03:21:48.296Z,12.90
2018-08-12T03:22:22.827Z,12.80
2018-08-12T03:22:56.882Z,12.80
2018-08-12T03:23:30.750Z,12.80
2018-08-12T03:24:04.622Z,12.80
2018-08-12T03:24:38.964Z,12.80
2018-08-12T03:25:12.836Z,12.80
2018-08-12T03:25:47.026Z,12.80
2018-08-12T03:26:21.542Z,12.80
2018-08-12T03:26:55.724Z,12.80
2018-08-12T03:27:29.564Z,12.80
2018-08-12T03:28:03.424Z,12.80
2018-08-12T03:28:37.307Z,12.80
2018-08-12T03:29:11.162Z,12.80
2018-08-12T03:29:45.008Z,12.80
2018-08-12T03:30:19.002Z,12.80
2018-08-12T03:30:52.979Z,12.80
2018-08-12T03:31:27.170Z,12.80
2018-08-12T03:32:01.021Z,12.80
2018-08-12T03:32:35.239Z,12.80
2018-08-12T03:33:09.468Z,12.80
2018-08-12T03:33:43.680Z,12.80
2018-08-12T03:34:17.893Z,12.80
2018-08-12T03:34:51.732Z,12.80
2018-08-12T03:35:26.000Z,12.80
2018-08-12T03:36:00.220Z,12.80
2018-08-12T03:36:34.089Z,12.80
2018-08-12T03:37:08.284Z,12.80
2018-08-12T03:37:42.500Z,12.80
2018-08-12T03:38:16.723Z,12.80
2018-08-12T03:38:50.562Z,12.80
2018-08-12T03:39:24.754Z,12.80
2018-08-12T03:39:58.980Z,12.80
2018-08-12T03:40:32.862Z,12.80
2018-08-12T03:41:06.704Z,12.80
2018-08-12T03:41:40.586Z,12.80
2018-08-12T03:42:14.876Z,12.80
2018-08-12T03:42:48.712Z,12.80
2018-08-12T03:43:23.306Z,12.80
2018-08-12T03:43:57.206Z,12.80
2018-08-12T03:44:31.448Z,12.80
2018-08-12T03:45:06.858Z,12.80
2018-08-12T03:45:41.081Z,12.90
2018-08-12T03:46:15.666Z,12.90
2018-08-12T03:46:49.929Z,12.90
2018-08-12T03:47:24.156Z,12.90
2018-08-12T03:47:58.359Z,12.90
2018-08-12T03:48:32.190Z,12.90
2018-08-12T03:49:06.375Z,12.90
2018-08-12T03:49:40.590Z,12.90
2018-08-12T03:50:14.448Z,13.00
2018-08-12T03:50:48.342Z,13.00
2018-08-12T03:51:22.558Z,13.00
2018-08-12T03:51:56.408Z,13.00
2018-08-12T03:52:30.272Z,13.00
2018-08-12T03:53:04.144Z,13.00
2018-08-12T03:53:38.365Z,13.00
2018-08-12T03:54:12.532Z,13.00
2018-08-12T03:54:46.716Z,13.00
2018-08-12T03:55:20.916Z,13.10
2018-08-12T03:55:55.142Z,13.10
2018-08-12T03:56:29.065Z,13.10
2018-08-12T03:57:02.942Z,13.10
2018-08-12T03:57:37.058Z,13.10
2018-08-12T03:58:10.905Z,13.10
2018-08-12T03:58:45.147Z,13.10
2018-08-12T03:59:19.350Z,13.10
2018-08-12T03:59:53.539Z,13.10
2018-08-12T04:00:27.441Z,13.10
2018-08-12T04:01:01.324Z,13.10
2018-08-12T04:01:35.202Z,13.10
2018-08-12T04:02:09.435Z,13.10
2018-08-12T04:02:43.628Z,13.10
2018-08-12T04:03:18.180Z,13.20
2018-08-12T04:03:52.464Z,13.20
2018-08-12T04:04:26.330Z,13.20
2018-08-12T04:05:00.234Z,13.20
2018-08-12T04:05:34.126Z,13.20
2018-08-12T04:06:08.370Z,13.20
2018-08-12T04:06:42.574Z,13.20
2018-08-12T04:07:16.763Z,13.20
2018-08-12T04:07:50.620Z,13.20
2018-08-12T04:08:24.822Z,13.30
2018-08-12T04:08:58.678Z,13.30
2018-08-12T04:09:32.553Z,13.30
2018-08-12T04:10:07.020Z,13.30
2018-08-12T04:10:41.182Z,13.30
2018-08-12T04:11:15.080Z,13.30
2018-08-12T04:11:49.726Z,13.40
2018-08-12T04:12:23.594Z,13.40
2018-08-12T04:12:57.462Z,13.40
2018-08-12T04:13:31.717Z,13.40
2018-08-12T04:14:05.922Z,13.40
2018-08-12T04:14:40.090Z,13.50
2018-08-12T04:15:13.968Z,13.50
2018-08-12T04:15:47.859Z,13.50
2018-08-12T04:16:22.074Z,13.50
2018-08-12T04:16:58.869Z,13.50
2018-08-12T04:17:33.434Z,13.60
2018-08-12T04:18:07.278Z,13.60
2018-08-12T04:18:41.464Z,13.60
2018-08-12T04:19:15.944Z,13.70
2018-08-12T04:19:49.816Z,13.70
2018-08-12T04:20:23.680Z,13.80
2018-08-12T04:20:57.536Z,13.90
2018-08-12T04:21:32.097Z,14.00
2018-08-12T04:22:06.352Z,14.20
2018-08-12T04:22:40.438Z,14.30
2018-08-12T04:23:14.289Z,14.40
2018-08-12T04:23:48.505Z,14.60
2018-08-12T04:24:22.364Z,14.70
2018-08-12T04:24:56.252Z,14.90
2018-08-12T04:25:30.181Z,15.00
2018-08-12T04:26:04.485Z,15.20
2018-08-12T04:26:38.406Z,15.30
2018-08-12T04:27:12.577Z,15.40
2018-08-12T04:27:46.752Z,15.50
2018-08-12T04:28:21.142Z,15.60
2018-08-12T04:28:54.986Z,15.60
2018-08-12T04:29:29.197Z,15.60
2018-08-12T04:30:03.109Z,15.70
2018-08-12T04:30:36.958Z,15.80
2018-08-12T04:31:11.149Z,15.80
2018-08-12T04:31:45.360Z,16.00
2018-08-12T04:32:19.201Z,16.00
2018-08-12T04:32:53.746Z,16.10
2018-08-12T04:33:27.607Z,16.10
2018-08-12T04:34:01.785Z,16.10
2018-08-12T04:34:35.637Z,16.20
2018-08-12T04:35:09.892Z,16.10
2018-08-12T04:35:44.090Z,16.10
2018-08-12T04:36:17.934Z,16.10
2018-08-12T04:36:51.911Z,16.10
2018-08-12T04:37:26.136Z,16.20
2018-08-12T04:38:00.009Z,16.20
2018-08-12T04:38:34.230Z,16.30
2018-08-12T04:39:11.119Z,16.40
2018-08-12T04:39:45.299Z,16.50
2018-08-12T04:40:19.501Z,16.70
2018-08-12T04:40:53.733Z,16.80
2018-08-12T04:41:27.928Z,16.90
2018-08-12T04:42:01.791Z,17.10
2018-08-12T04:42:36.010Z,17.20
2018-08-12T04:43:09.854Z,17.30
2018-08-12T04:43:44.048Z,17.40
2018-08-12T04:44:17.937Z,17.40
2018-08-12T04:44:52.110Z,17.50
2018-08-12T04:45:26.315Z,17.40
2018-08-12T04:46:00.276Z,17.30
2018-08-12T04:46:34.819Z,17.30
2018-08-12T04:47:08.707Z,17.20
2018-08-12T04:47:42.571Z,17.10
2018-08-12T04:48:16.418Z,17.00
2018-08-12T04:48:50.729Z,16.90
2018-08-12T04:49:24.572Z,16.80
2018-08-12T04:49:58.772Z,16.60
2018-08-12T04:50:32.685Z,16.60
2018-08-12T04:51:07.024Z,16.50
2018-08-12T04:51:41.236Z,16.40
2018-08-12T04:52:15.474Z,16.30
2018-08-12T04:52:49.354Z,16.20
2018-08-12T04:53:23.211Z,16.20
2018-08-12T04:53:57.618Z,16.10
2018-08-12T04:54:32.134Z,16.00
2018-08-12T04:55:06.526Z,15.90
2018-08-12T04:55:40.404Z,15.90
2018-08-12T04:56:14.298Z,15.80
2018-08-12T04:56:48.526Z,15.80
2018-08-12T04:57:23.088Z,15.70
2018-08-12T04:57:57.292Z,15.70
2018-08-12T04:58:31.492Z,15.70
2018-08-12T04:59:05.874Z,15.60
2018-08-12T04:59:39.774Z,15.60
2018-08-12T05:00:13.670Z,15.60
2018-08-12T05:00:47.542Z,15.60
2018-08-12T05:01:21.846Z,15.50
2018-08-12T05:01:56.415Z,15.50
2018-08-12T05:02:30.750Z,15.50
2018-08-12T05:03:11.931Z,15.50
2018-08-12T05:03:46.170Z,15.40
2018-08-12T05:04:20.064Z,15.40
2018-08-12T05:04:54.278Z,15.40
2018-08-12T05:05:28.272Z,15.40
2018-08-12T05:06:02.128Z,15.40
2018-08-12T05:06:36.368Z,15.40
2018-08-12T05:07:10.574Z,15.40
2018-08-12T05:07:44.438Z,15.40
2018-08-12T05:08:18.310Z,15.40
2018-08-12T05:08:52.554Z,15.40
2018-08-12T05:09:26.750Z,15.40
2018-08-12T05:10:00.607Z,15.40
2018-08-12T05:10:34.482Z,15.40
2018-08-12T05:11:08.989Z,15.40
2018-08-12T05:11:43.238Z,15.40
2018-08-12T05:12:17.097Z,15.40
2018-08-12T05:12:51.350Z,15.40
2018-08-12T05:13:25.217Z,15.40
2018-08-12T05:13:59.396Z,15.40
2018-08-12T05:14:37.204Z,15.40
2018-08-12T05:15:11.084Z,15.40
2018-08-12T05:15:45.121Z,15.40
2018-08-12T05:16:19.140Z,15.40
2018-08-12T05:16:53.680Z,15.40
2018-08-12T05:17:27.552Z,15.40
2018-08-12T05:18:01.787Z,15.40
2018-08-12T05:18:36.093Z,15.40
2018-08-12T05:19:10.352Z,15.40
2018-08-12T05:19:44.216Z,15.40
2018-08-12T05:20:18.110Z,15.40
2018-08-12T05:20:52.026Z,15.40
2018-08-12T05:21:26.224Z,15.40
2018-08-12T05:22:00.748Z,15.40
2018-08-12T05:22:34.606Z,15.40
2018-08-12T05:23:08.599Z,15.40
2018-08-12T05:23:42.826Z,15.40
2018-08-12T05:24:17.004Z,15.40
2018-08-12T05:24:50.896Z,15.40
2018-08-12T05:25:25.140Z,15.40
2018-08-12T05:25:59.356Z,15.40
2018-08-12T05:26:33.237Z,15.40
2018-08-12T05:27:07.194Z,15.40
2018-08-12T05:27:41.708Z,15.40
2018-08-12T05:28:15.947Z,15.50
2018-08-12T05:28:50.196Z,15.50
2018-08-12T05:29:24.424Z,15.50
2018-08-12T05:29:58.301Z,15.50
2018-08-12T05:30:32.211Z,15.50
2018-08-12T05:31:06.119Z,15.50
2018-08-12T05:31:40.552Z,15.50
2018-08-12T05:32:14.434Z,15.50
2018-08-12T05:32:48.636Z,15.50
2018-08-12T05:33:22.515Z,15.50
2018-08-12T05:33:56.427Z,15.60
2018-08-12T05:34:30.290Z,15.60
2018-08-12T05:35:05.279Z,15.70
2018-08-12T05:35:39.130Z,15.70
2018-08-12T05:36:13.022Z,15.80
2018-08-12T05:36:47.125Z,15.90
2018-08-12T05:37:21.463Z,16.00
2018-08-12T05:37:55.682Z,16.10
2018-08-12T05:38:32.832Z,16.20
2018-08-12T05:39:09.381Z,16.30
2018-08-12T05:39:43.252Z,16.40
2018-08-12T05:40:17.132Z,16.50
2018-08-12T05:40:51.012Z,16.50
2018-08-12T05:41:24.864Z,16.60
2018-08-12T05:41:58.795Z,16.60
2018-08-12T05:42:33.390Z,16.60
2018-08-12T05:43:07.683Z,16.70
2018-08-12T05:43:41.885Z,16.70
2018-08-12T05:44:15.748Z,16.80
2018-08-12T05:44:49.686Z,16.90
2018-08-12T05:45:23.532Z,17.00
2018-08-12T05:45:57.444Z,17.10
2018-08-12T05:46:31.378Z,17.30
2018-08-12T05:47:05.268Z,17.40
2018-08-12T05:47:40.844Z,17.60
2018-08-12T05:48:15.358Z,17.80
2018-08-12T05:48:49.592Z,18.00
2018-08-12T05:49:23.648Z,18.20
2018-08-12T05:49:57.607Z,18.20
2018-08-12T05:50:32.146Z,18.30
2018-08-12T05:51:06.604Z,18.40
2018-08-12T05:51:40.980Z,18.40
2018-08-12T05:52:14.970Z,18.40
2018-08-12T05:52:48.869Z,18.40
2018-08-12T05:53:22.980Z,18.30
2018-08-12T05:53:56.908Z,18.20
2018-08-12T05:54:31.125Z,18.20
2018-08-12T05:55:05.271Z,18.20
2018-08-12T05:55:39.448Z,18.10
2018-08-12T05:56:13.297Z,18.10
2018-08-12T05:56:47.193Z,18.10
2018-08-12T05:57:21.395Z,18.10
2018-08-12T05:57:55.350Z,18.00
2018-08-12T05:58:29.548Z,17.90
2018-08-12T05:59:03.485Z,17.80
2018-08-12T05:59:37.962Z,17.80
2018-08-12T06:00:13.934Z,17.70
2018-08-12T06:00:47.841Z,17.70
2018-08-12T06:01:21.772Z,17.70
2018-08-12T06:01:55.840Z,17.70
2018-08-12T06:02:29.744Z,17.80
2018-08-12T06:03:04.241Z,17.80
2018-08-12T06:03:38.116Z,17.90
2018-08-12T06:04:12.019Z,17.90
2018-08-12T06:04:45.875Z,18.00
2018-08-12T06:05:19.740Z,18.00
2018-08-12T06:05:53.617Z,18.10
2018-08-12T06:06:27.863Z,18.10
2018-08-12T06:07:02.388Z,18.20
2018-08-12T06:07:36.221Z,18.20
2018-08-12T06:08:10.097Z,18.20
2018-08-12T06:08:44.300Z,18.30
2018-08-12T06:09:18.705Z,18.30
2018-08-12T06:09:52.629Z,18.30
2018-08-12T06:10:26.871Z,18.30
2018-08-12T06:11:00.788Z,18.40
2018-08-12T06:11:35.037Z,18.40
2018-08-12T06:12:08.966Z,18.40
2018-08-12T06:12:42.865Z,18.40
2018-08-12T06:13:17.068Z,18.50
2018-08-12T06:13:51.265Z,18.50
2018-08-12T06:14:25.495Z,18.50
2018-08-12T06:14:59.393Z,18.50
2018-08-12T06:15:33.773Z,18.50
2018-08-12T06:16:07.671Z,18.60
2018-08-12T06:16:41.555Z,18.50
2018-08-12T06:17:15.557Z,18.50
2018-08-12T06:17:50.287Z,18.50
2018-08-12T06:18:24.225Z,18.50
2018-08-12T06:18:58.147Z,18.50
2018-08-12T06:19:32.058Z,18.40
2018-08-12T06:20:08.025Z,18.40
2018-08-12T06:20:41.947Z,18.40
2018-08-12T06:21:15.865Z,18.30
2018-08-12T06:21:49.774Z,18.30
2018-08-12T06:22:23.663Z,18.30
2018-08-12T06:22:57.933Z,18.30
2018-08-12T06:23:32.184Z,18.30
2018-08-12T06:24:06.390Z,18.30
2018-08-12T06:24:40.253Z,18.30
2018-08-12T06:25:14.150Z,18.30
2018-08-12T06:25:48.033Z,18.30
2018-08-12T06:26:22.105Z,18.30
2018-08-12T06:26:56.637Z,18.30
2018-08-12T06:27:30.869Z,18.30
2018-08-12T06:28:04.795Z,18.30
2018-08-12T06:28:38.749Z,18.30
2018-08-12T06:29:13.205Z,18.30
2018-08-12T06:29:47.423Z,18.30
2018-08-12T06:30:21.311Z,18.30
2018-08-12T06:30:55.197Z,18.30
2018-08-12T06:31:29.439Z,18.30
2018-08-12T06:32:03.575Z,18.40
2018-08-12T06:32:37.560Z,18.40
2018-08-12T06:33:11.653Z,18.40
2018-08-12T06:33:45.863Z,18.50
2018-08-12T06:34:20.129Z,18.50
2018-08-12T06:34:54.029Z,18.50
2018-08-12T06:35:28.262Z,18.50
2018-08-12T06:36:02.145Z,18.50
2018-08-12T06:36:36.019Z,18.60
2018-08-12T06:37:09.910Z,18.60
2018-08-12T06:37:43.979Z,18.60
2018-08-12T06:38:18.210Z,18.70
2018-08-12T06:38:52.157Z,18.70
2018-08-12T06:39:26.360Z,18.70
2018-08-12T06:40:00.243Z,18.70
2018-08-12T06:40:34.147Z,18.70
2018-08-12T06:41:08.348Z,18.70
2018-08-12T06:41:42.181Z,18.80
2018-08-12T06:42:16.374Z,18.80
2018-08-12T06:42:50.332Z,18.80
2018-08-12T06:43:24.266Z,18.80
2018-08-12T06:44:38.757Z,18.80
2018-08-12T06:45:14.299Z,18.80
2018-08-12T06:45:48.250Z,18.80
2018-08-12T06:46:22.623Z,18.80
2018-08-12T06:46:56.999Z,18.80
2018-08-12T06:47:31.213Z,18.80
2018-08-12T06:48:05.257Z,18.80
2018-08-12T06:48:39.158Z,18.80
2018-08-12T06:49:13.452Z,18.80
2018-08-12T06:49:47.650Z,18.80
2018-08-12T06:50:22.318Z,18.80
2018-08-12T06:50:56.564Z,18.90
2018-08-12T06:51:30.432Z,18.90
2018-08-12T06:52:04.390Z,18.90
2018-08-12T06:52:39.615Z,18.90
2018-08-12T06:53:13.504Z,18.90
2018-08-12T06:53:47.725Z,18.90
2018-08-12T06:54:21.909Z,18.90
2018-08-12T06:54:56.208Z,18.90
2018-08-12T06:55:30.415Z,18.90
2018-08-12T06:56:04.642Z,18.90
2018-08-12T06:56:40.585Z,18.90
2018-08-12T06:57:15.041Z,18.90
2018-08-12T06:57:49.401Z,18.90
2018-08-12T06:58:23.610Z,18.80
2018-08-12T06:58:57.485Z,18.80
2018-08-12T06:59:31.393Z,18.80
2018-08-12T07:00:07.711Z,18.80
2018-08-12T07:00:41.670Z,18.80
2018-08-12T07:01:15.630Z,18.80
2018-08-12T07:01:49.594Z,18.80
2018-08-12T07:02:23.802Z,18.80
2018-08-12T07:02:57.686Z,18.80
2018-08-12T07:03:31.990Z,18.70
2018-08-12T07:04:06.273Z,18.80
2018-08-12T07:04:40.698Z,18.80
2018-08-12T07:05:14.876Z,18.80
2018-08-12T07:05:49.138Z,18.80
2018-08-12T07:06:23.137Z,18.80
2018-08-12T07:06:57.583Z,18.80
2018-08-12T07:07:31.543Z,18.90
2018-08-12T07:08:05.658Z,18.90
2018-08-12T07:08:40.062Z,18.90
2018-08-12T07:09:13.970Z,18.90
2018-08-12T07:09:48.500Z,18.90
2018-08-12T07:10:22.754Z,18.90
2018-08-12T07:10:56.945Z,18.90
2018-08-12T07:11:30.834Z,18.90
2018-08-12T07:12:04.804Z,18.90
2018-08-12T07:12:38.662Z,18.80
2018-08-12T07:13:12.863Z,18.80
2018-08-12T07:13:47.459Z,18.80
2018-08-12T07:14:21.711Z,18.80
2018-08-12T07:14:55.810Z,18.80
2018-08-12T07:15:29.812Z,18.80
2018-08-12T07:16:03.731Z,18.80
2018-08-12T07:16:38.152Z,18.70
2018-08-12T07:17:12.047Z,18.70
2018-08-12T07:17:46.642Z,18.70
2018-08-12T07:18:20.925Z,18.60
2018-08-12T07:18:55.011Z,18.70
2018-08-12T07:19:29.591Z,18.70
2018-08-12T07:20:03.768Z,18.70
2018-08-12T07:20:37.636Z,18.70
2018-08-12T07:21:11.681Z,18.70
2018-08-12T07:21:45.780Z,18.60
2018-08-12T07:22:19.760Z,18.70
2018-08-12T07:22:53.761Z,18.70